Time;durP1;ratioP1;P1;durP2;ratioP2;P2;SDS_P1;SDS_P2;PMS_P1;PMS_P2;Temp;Humidity;BMP_temperature;BMP_pressure;BME280_temperature;BME280_humidity;BME280_pressure;Samples;Min_cycle;Max_cycle;Signal;HPM_P1;HPM_P2
2021/11/21 00:01:23;;;;;;;39.83;20.52;;;10.10;99.90;;;7.97;100.00;100438.97;5005395;28;20068;-88
2021/11/21 00:03:50;;;;;;;38.83;20.30;;;10.10;99.90;;;7.96;100.00;100434.59;5009127;28;20053;-87
2021/11/21 00:06:18;;;;;;;41.47;21.52;;;10.10;99.90;;;7.98;100.00;100437.97;5010074;28;20061;-88
2021/11/21 00:08:46;;;;;;;39.45;20.67;;;10.10;99.90;;;7.99;100.00;100439.66;5008985;28;20079;-88
2021/11/21 00:11:15;;;;;;;37.58;20.67;;;10.10;99.90;;;7.97;100.00;100452.53;5008840;28;20469;-88
2021/11/21 00:13:43;;;;;;;41.45;22.70;;;10.10;99.90;;;7.97;100.00;100455.25;5009013;28;20427;-88
2021/11/21 00:16:10;;;;;;;37.70;20.85;;;10.10;99.90;;;7.91;100.00;100450.50;5009605;28;20073;-88
2021/11/21 00:18:38;;;;;;;40.80;22.60;;;10.00;99.90;;;7.93;100.00;100445.75;5010147;28;20792;-88
2021/11/21 00:21:05;;;;;;;43.55;21.83;;;10.10;99.90;;;7.93;100.00;100446.59;5009700;28;20050;-88
2021/11/21 00:23:32;;;;;;;39.65;22.38;;;10.10;99.90;;;7.97;100.00;100437.09;4997980;28;20502;-88
2021/11/21 00:26:00;;;;;;;49.63;23.65;;;10.10;99.90;;;7.94;100.00;100436.59;4998089;28;20049;-87
2021/11/21 00:28:29;;;;;;;46.38;23.63;;;10.10;99.90;;;7.95;100.00;100424.75;4989116;28;20133;-88
2021/11/21 00:30:56;;;;;;;48.60;23.52;;;10.10;99.90;;;7.90;100.00;100429.81;5005305;28;20054;-88
2021/11/21 00:33:24;;;;;;;44.85;22.90;;;10.10;99.90;;;7.90;100.00;100429.81;4994747;28;20129;-88
2021/11/21 00:35:51;;;;;;;47.10;24.52;;;10.10;99.90;;;7.93;100.00;100413.25;5009645;28;20061;-88
2021/11/21 00:38:19;;;;;;;52.97;25.45;;;10.00;99.90;;;7.92;100.00;100406.97;5027928;28;20133;-88
2021/11/21 00:40:46;;;;;;;49.92;24.60;;;10.00;99.90;;;7.89;100.00;100406.47;5009884;28;20058;-88
2021/11/21 00:43:14;;;;;;;53.13;24.65;;;10.00;99.90;;;7.93;100.00;100407.81;5008474;28;20046;-87
2021/11/21 00:45:43;;;;;;;50.08;24.58;;;10.00;99.90;;;7.90;100.00;100402.72;5001039;28;20145;-87
2021/11/21 00:48:10;;;;;;;45.75;23.30;;;10.00;99.90;;;7.95;100.00;100394.94;5009787;28;20069;-89
2021/11/21 00:50:38;;;;;;;52.60;26.55;;;10.00;99.90;;;7.89;100.00;100396.47;5009420;28;20131;-88
2021/11/21 00:53:05;;;;;;;50.55;25.08;;;10.00;99.90;;;7.84;100.00;100390.72;5009711;28;20049;-88
2021/11/21 00:55:38;;;;;;;50.15;25.63;;;10.00;99.90;;;7.83;100.00;100387.16;5009157;28;20042;-88
2021/11/21 00:58:09;;;;;;;56.63;26.60;;;10.00;99.90;;;7.83;100.00;100381.75;5009756;28;20137;-88
2021/11/21 01:00:39;;;;;;;51.45;25.20;;;10.00;99.90;;;7.84;100.00;100379.88;5003815;28;20050;-87
2021/11/21 01:03:12;;;;;;;52.70;26.30;;;10.00;99.90;;;7.81;100.00;100377.53;5001329;28;20124;-88
2021/11/21 01:05:40;;;;;;;50.00;24.77;;;9.90;99.90;;;7.80;100.00;100375.81;5009104;28;20044;-88
2021/11/21 01:08:08;;;;;;;54.15;25.67;;;10.00;99.90;;;7.80;100.00;100376.66;5009191;28;20053;-87
2021/11/21 01:10:36;;;;;;;48.08;24.58;;;9.90;99.90;;;7.86;100.00;100374.28;5009435;28;20056;-89
2021/11/21 01:13:05;;;;;;;51.33;25.48;;;9.90;99.90;;;7.81;100.00;100367.53;5009396;28;20049;-88
2021/11/21 01:15:34;;;;;;;50.53;23.85;;;9.90;99.90;;;7.78;100.00;100362.44;5007727;28;20033;-88
2021/11/21 01:18:02;;;;;;;47.95;25.17;;;9.90;99.90;;;7.77;100.00;100366.19;4997884;28;20054;-89
2021/11/21 01:20:34;;;;;;;48.08;24.48;;;9.90;99.90;;;7.73;100.00;100359.41;5006503;28;20042;-88
2021/11/21 01:23:02;;;;;;;46.22;24.55;;;9.90;99.90;;;7.74;100.00;100355.66;5009279;28;20579;-88
2021/11/21 01:25:30;;;;;;;49.53;25.00;;;9.90;99.90;;;7.72;100.00;100362.28;5008648;28;20121;-89
2021/11/21 01:27:57;;;;;;;49.88;25.27;;;9.90;99.90;;;7.71;100.00;100364.16;5009168;28;20050;-88
2021/11/21 01:30:29;;;;;;;48.40;24.05;;;9.90;99.90;;;7.72;100.00;100352.28;5008957;28;20501;-88
2021/11/21 01:32:58;;;;;;;52.85;25.10;;;9.90;99.90;;;7.67;100.00;100353.81;5004746;28;20206;-89
2021/11/21 01:35:27;;;;;;;47.55;24.05;;;9.90;99.90;;;7.69;100.00;100349.06;5008321;28;20129;-88
2021/11/21 01:37:55;;;;;;;51.28;23.35;;;9.90;99.90;;;7.69;100.00;100346.34;5008975;28;20041;-89
2021/11/21 01:40:24;;;;;;;41.70;23.27;;;9.90;99.90;;;7.69;100.00;100346.34;5009018;28;20557;-88
2021/11/21 01:42:53;;;;;;;44.05;22.70;;;9.90;99.90;;;7.71;100.00;100347.03;4999748;28;20085;-89
2021/11/21 01:45:21;;;;;;;46.55;22.92;;;9.80;99.90;;;7.66;100.00;100344.84;4992826;28;20082;-89
2021/11/21 01:47:49;;;;;;;44.08;23.38;;;9.80;99.90;;;7.66;100.00;100344.84;4989097;28;20609;-88
2021/11/21 01:50:26;;;;;;;41.90;22.20;;;9.80;99.90;;;7.67;100.00;100345.69;4998883;28;20596;-88
2021/11/21 01:52:55;;;;;;;40.70;21.58;;;9.80;99.90;;;7.67;100.00;100337.56;5008141;28;20054;-88
2021/11/21 01:55:23;;;;;;;40.97;21.48;;;9.80;99.90;;;7.71;100.00;100338.91;5006890;28;20421;-88
2021/11/21 01:57:50;;;;;;;42.35;22.92;;;9.80;99.90;;;7.68;100.00;100341.97;5008606;28;20603;-88
2021/11/21 02:00:18;;;;;;;41.00;21.55;;;9.80;99.90;;;7.68;100.00;100341.97;5008610;28;20120;-89
2021/11/21 02:02:45;;;;;;;46.53;22.25;;;9.80;99.90;;;7.63;100.00;100337.06;5007037;28;20512;-88
2021/11/21 02:05:13;;;;;;;38.03;20.48;;;9.80;99.90;;;7.61;100.00;100330.97;5002275;28;20038;-88
2021/11/21 02:07:42;;;;;;;41.25;20.38;;;9.80;99.90;;;7.58;100.00;100328.59;4994080;28;20511;-89
2021/11/21 02:10:14;;;;;;;39.05;20.75;;;9.80;99.90;;;7.58;100.00;100312.34;4992815;28;20042;-88
2021/11/21 02:12:42;;;;;;;37.90;20.42;;;9.80;99.90;;;7.58;100.00;100312.34;4991441;28;20070;-88
2021/11/21 02:15:12;;;;;;;43.15;20.80;;;9.80;99.90;;;7.60;100.00;100318.44;4992369;28;20046;-88
2021/11/21 02:17:40;;;;;;;37.75;19.80;;;9.80;99.90;;;7.55;100.00;100308.09;4992796;28;20730;-88
2021/11/21 02:20:11;;;;;;;40.97;21.17;;;9.80;99.90;;;7.56;100.00;100298.16;5006715;28;20129;-88
2021/11/21 02:22:41;;;;;;;42.08;20.73;;;9.80;99.90;;;7.58;100.00;100298.81;5027123;28;20045;-89
2021/11/21 02:25:09;;;;;;;39.53;20.33;;;9.70;99.90;;;7.64;100.00;100295.41;5011868;28;20061;-88
2021/11/21 02:27:37;;;;;;;40.38;20.33;;;9.80;99.90;;;7.57;100.00;100287.13;5012101;28;20148;-88
2021/11/21 02:30:07;;;;;;;36.80;19.38;;;9.70;99.90;;;7.59;100.00;100286.94;5012480;28;20073;-88
2021/11/21 02:32:35;;;;;;;42.63;22.02;;;9.70;99.90;;;7.56;100.00;100281.91;5027468;28;20078;-88
2021/11/21 02:35:02;;;;;;;39.42;20.42;;;9.70;99.90;;;7.55;100.00;100281.03;5017415;28;20049;-89
2021/11/21 02:37:30;;;;;;;41.10;21.50;;;9.70;99.90;;;7.59;100.00;100284.25;5024811;28;20107;-88
2021/11/21 02:39:58;;;;;;;43.63;21.50;;;9.70;99.90;;;7.60;100.00;100272.41;5031692;28;20080;-89
2021/11/21 02:42:29;;;;;;;45.88;22.08;;;9.70;99.90;;;7.60;100.00;100277.81;5031842;28;20069;-89
2021/11/21 02:44:58;;;;;;;47.33;23.33;;;9.70;99.90;;;7.55;100.00;100280.19;5031394;28;20049;-90
2021/11/21 02:47:31;;;;;;;48.10;22.20;;;9.70;99.90;;;7.60;100.00;100272.41;5031976;28;20044;-89
2021/11/21 02:49:59;;;;;;;49.95;24.15;;;9.70;99.90;;;7.60;100.00;100269.69;5031675;28;20409;-89
2021/11/21 02:52:26;;;;;;;50.00;24.38;;;9.70;99.90;;;7.66;100.00;100265.47;5031584;28;20081;-89
2021/11/21 02:54:58;;;;;;;52.75;24.63;;;9.70;99.90;;;7.63;100.00;100261.22;5031078;28;20068;-90
2021/11/21 02:57:27;;;;;;;44.75;22.23;;;9.70;99.90;;;7.57;100.00;100251.91;5030146;28;20050;-88
2021/11/21 02:59:55;;;;;;;46.63;22.20;;;9.70;99.90;;;7.64;100.00;100246.66;5029916;28;20045;-89
2021/11/21 03:02:22;;;;;;;45.35;23.15;;;9.70;99.90;;;7.63;100.00;100244.97;5026977;28;20048;-88
2021/11/21 03:04:53;;;;;;;42.47;21.90;;;9.70;99.90;;;7.59;100.00;100243.63;5001035;28;20161;-88
2021/11/21 03:07:21;;;;;;;44.35;22.98;;;9.70;99.90;;;7.63;100.00;100240.41;4992264;28;20046;-89
2021/11/21 03:09:50;;;;;;;49.20;23.80;;;9.70;99.90;;;7.61;100.00;100237.00;4992103;28;20445;-88
2021/11/21 03:12:21;;;;;;;44.78;22.23;;;9.70;99.90;;;7.58;100.00;100225.69;4990467;28;20149;-89
2021/11/21 03:14:49;;;;;;;48.95;24.30;;;9.70;99.90;;;7.64;100.00;100233.13;4996528;28;20125;-89
2021/11/21 03:17:18;;;;;;;53.45;24.58;;;9.70;99.90;;;7.59;100.00;100232.78;4997534;28;20150;-89
2021/11/21 03:19:45;;;;;;;46.28;23.45;;;9.70;99.90;;;7.60;100.00;100223.66;5002966;28;20046;-89
2021/11/21 03:22:13;;;;;;;50.97;23.50;;;9.70;99.90;;;7.61;100.00;100215.34;5009880;28;20140;-89
2021/11/21 03:24:41;;;;;;;46.45;23.40;;;9.70;99.90;;;7.62;100.00;100216.22;5010767;28;20133;-88
2021/11/21 03:27:08;;;;;;;46.42;23.15;;;9.70;99.90;;;7.59;100.00;100209.25;5011208;28;20097;-89
2021/11/21 03:29:37;;;;;;;44.20;21.42;;;9.80;99.90;;;7.62;100.00;100205.38;5010976;28;20564;-89
2021/11/21 03:32:06;;;;;;;44.58;22.05;;;9.70;99.90;;;7.60;100.00;100204.72;5006133;28;20057;-89
2021/11/21 03:34:37;;;;;;;44.03;21.70;;;9.70;99.90;;;7.56;100.00;100206.91;5005957;28;20132;-89
2021/11/21 03:37:05;;;;;;;44.70;20.88;;;9.70;99.90;;;7.56;100.00;100211.50;5011235;28;20037;-89
2021/11/21 03:39:33;;;;;;;43.70;21.15;;;9.70;99.90;;;7.58;100.00;100209.44;5010833;28;20512;-89
2021/11/21 03:42:00;;;;;;;44.42;21.52;;;9.70;99.90;;;7.59;100.00;100203.84;5010881;28;20037;-89
2021/11/21 03:44:27;;;;;;;42.42;22.45;;;9.70;99.90;;;7.59;100.00;100200.28;5009255;28;20085;-88
2021/11/21 03:46:57;;;;;;;44.28;20.95;;;9.70;99.90;;;7.61;100.00;100195.53;5010591;28;20054;-89
2021/11/21 03:49:25;;;;;;;43.03;21.30;;;9.70;99.90;;;7.68;100.00;100191.13;5010786;28;20516;-89
2021/11/21 03:51:52;;;;;;;43.25;21.58;;;9.70;99.90;;;7.67;100.00;100194.00;5009976;28;20038;-88
2021/11/21 03:54:19;;;;;;;42.00;21.25;;;9.70;99.90;;;7.59;100.00;100192.16;4998705;28;20117;-89
2021/11/21 03:56:47;;;;;;;40.67;20.02;;;9.70;99.90;;;7.54;100.00;100186.41;4993213;28;20038;-88
2021/11/21 03:59:14;;;;;;;41.28;20.67;;;9.70;99.90;;;7.59;100.00;100186.75;5010481;28;20723;-89
2021/11/21 04:01:41;;;;;;;41.20;20.15;;;9.70;99.90;;;7.59;100.00;100186.75;5010472;28;20045;-88
2021/11/21 04:04:12;;;;;;;40.30;19.52;;;9.70;99.90;;;7.60;100.00;100192.00;5010241;28;20081;-89
2021/11/21 04:06:39;;;;;;;37.03;18.73;;;9.70;99.90;;;7.59;100.00;100184.03;5010404;28;20050;-88
2021/11/21 04:09:07;;;;;;;36.30;18.48;;;9.70;99.90;;;7.62;100.00;100181.84;5005041;28;20042;-89
2021/11/21 04:11:35;;;;;;;38.67;18.05;;;9.70;99.90;;;7.59;100.00;100179.47;4997244;28;20121;-89
2021/11/21 04:14:02;;;;;;;34.97;17.48;;;9.70;99.90;;;7.57;100.00;100178.78;4988992;28;20057;-89
2021/11/21 04:16:30;;;;;;;36.00;17.73;;;9.70;99.90;;;7.63;100.00;100185.38;4990295;28;20128;-88
2021/11/21 04:18:57;;;;;;;39.17;18.58;;;9.70;99.90;;;7.61;100.00;100182.00;4995156;28;20045;-88
2021/11/21 04:21:25;;;;;;;40.20;18.98;;;9.70;99.90;;;7.64;100.00;100177.09;5010132;28;20066;-89
2021/11/21 04:23:53;;;;;;;42.78;19.23;;;9.70;99.90;;;7.66;100.00;100176.94;5010046;28;20130;-89
2021/11/21 04:26:21;;;;;;;39.67;19.88;;;9.70;99.90;;;7.66;100.00;100176.09;5007843;28;20042;-89
2021/11/21 04:28:48;;;;;;;41.20;19.83;;;9.80;99.90;;;7.61;100.00;100171.19;5010358;28;20073;-88
2021/11/21 04:31:16;;;;;;;44.65;20.85;;;9.70;99.90;;;7.63;100.00;100163.72;5008374;28;20108;-89
2021/11/21 04:33:44;;;;;;;44.92;20.92;;;9.70;99.90;;;7.63;100.00;100167.28;5009890;28;20453;-89
2021/11/21 04:36:11;;;;;;;43.35;21.02;;;9.70;99.90;;;7.60;100.00;100161.38;5009327;28;20137;-89
2021/11/21 04:38:40;;;;;;;45.65;20.63;;;9.70;99.90;;;7.58;100.00;100166.13;5003162;28;20069;-89
2021/11/21 04:41:07;;;;;;;42.63;20.58;;;9.70;99.90;;;7.56;100.00;100163.59;4997528;28;20546;-88
2021/11/21 04:43:34;;;;;;;43.22;20.90;;;9.70;99.90;;;7.53;100.00;100152.25;4990104;28;20066;-88
2021/11/21 04:46:01;;;;;;;46.25;21.85;;;9.70;99.90;;;7.54;100.00;100148.50;4989581;28;20120;-90
2021/11/21 04:48:29;;;;;;;46.10;21.48;;;9.70;99.90;;;7.55;100.00;100140.22;4990004;28;20130;-88
2021/11/21 04:50:56;;;;;;;43.88;21.33;;;9.70;99.90;;;7.59;100.00;100141.56;4990045;28;20189;-90
2021/11/21 04:53:23;;;;;;;54.75;21.65;;;9.70;99.90;;;7.56;100.00;100135.66;4989787;28;20046;-90
2021/11/21 04:55:52;;;;;;;46.60;21.85;;;9.70;99.90;;;7.60;100.00;100126.16;4989665;28;20180;-89
2021/11/21 04:58:19;;;;;;;47.38;21.95;;;9.70;99.90;;;7.62;100.00;100116.00;4988579;28;20058;-88
2021/11/21 05:00:47;;;;;;;48.38;22.30;;;9.70;99.90;;;7.58;100.00;100103.84;4989565;28;20141;-89
2021/11/21 05:03:14;;;;;;;49.08;21.70;;;9.70;99.90;;;7.57;100.00;100105.69;4991914;28;20070;-89
2021/11/21 05:05:47;;;;;;;46.22;21.02;;;9.70;99.90;;;7.60;100.00;100104.50;5008703;28;20123;-89
2021/11/21 05:08:14;;;;;;;43.90;21.63;;;9.70;99.90;;;7.63;100.00;100113.13;5024337;28;20606;-89
2021/11/21 05:10:42;;;;;;;48.22;22.38;;;9.70;99.90;;;7.62;100.00;100124.13;5009021;28;20688;-89
2021/11/21 05:13:10;;;;;;;43.33;19.80;;;9.70;99.90;;;7.58;100.00;100117.38;5009374;28;20049;-88
2021/11/21 05:15:37;;;;;;;44.38;20.75;;;9.70;99.90;;;7.59;100.00;100129.88;5008610;28;20128;-89
2021/11/21 05:18:05;;;;;;;45.28;20.38;;;9.70;99.90;;;7.58;100.00;100128.22;5009178;28;20049;-89
2021/11/21 05:20:32;;;;;;;43.65;20.00;;;9.70;99.90;;;7.59;100.00;100127.19;5008923;28;20513;-88
2021/11/21 05:22:59;;;;;;;41.90;20.05;;;9.70;99.90;;;7.51;100.00;100113.69;5007792;28;20477;-90
2021/11/21 05:25:28;;;;;;;41.05;19.42;;;9.70;99.90;;;7.50;100.00;100122.81;5023682;28;20038;-89
2021/11/21 05:27:55;;;;;;;45.33;18.65;;;9.70;99.90;;;7.55;100.00;100117.72;5008914;28;20141;-90
2021/11/21 05:30:24;;;;;;;41.80;18.70;;;9.70;99.90;;;7.54;100.00;100116.00;5007505;28;20081;-89
2021/11/21 05:32:51;;;;;;;43.80;18.92;;;9.70;99.90;;;7.54;100.00;100111.47;5008538;28;20076;-90
2021/11/21 05:35:19;;;;;;;44.70;19.38;;;9.70;99.90;;;7.51;100.00;100113.69;4988893;28;20068;-89
2021/11/21 05:37:48;;;;;;;38.03;18.02;;;9.70;99.90;;;7.55;100.00;100115.00;4987198;28;20141;-89
2021/11/21 05:40:16;;;;;;;45.40;18.95;;;9.70;99.90;;;7.55;100.00;100112.31;4991423;28;20045;-89
2021/11/21 05:42:44;;;;;;;41.22;19.60;;;9.70;99.90;;;7.57;100.00;100110.25;5009382;28;20137;-89
2021/11/21 05:45:20;;;;;;;45.50;20.05;;;9.70;99.90;;;7.57;100.00;100104.84;5007932;28;20064;-89
2021/11/21 05:47:50;;;;;;;45.08;20.42;;;9.70;99.90;;;7.57;100.00;100099.44;5007483;28;20046;-89
2021/11/21 05:50:18;;;;;;;45.65;21.50;;;9.70;99.90;;;7.55;100.00;100090.63;5008981;28;20073;-89
2021/11/21 05:52:48;;;;;;;45.40;20.27;;;9.70;99.90;;;7.59;100.00;100091.97;5008775;28;20046;-90
2021/11/21 05:55:18;;;;;;;49.53;21.10;;;9.70;99.90;;;7.55;100.00;100090.63;5009417;28;20065;-92
2021/11/21 05:57:54;;;;;;;42.50;20.73;;;9.70;99.90;;;7.60;100.00;100090.97;5026262;28;20045;-92
2021/11/21 06:00:25;;;;;;;45.97;20.52;;;9.70;99.90;;;7.59;100.00;100087.38;5024066;28;20046;-91
2021/11/21 06:02:54;;;;;;;51.10;21.38;;;9.70;99.90;;;7.59;100.00;100090.09;5009044;28;20046;-90
2021/11/21 06:06:04;;;;;;;44.90;20.90;;;9.70;99.90;;;7.56;100.00;100086.94;5008164;28;20046;-93
2021/11/21 06:08:35;;;;;;;52.83;21.17;;;9.70;99.90;;;7.51;100.00;100078.47;5015123;28;20050;-91
2021/11/21 06:11:33;;;;;;;47.25;20.40;;;9.70;99.90;;;7.52;100.00;100090.97;5007588;28;20539;-91
2021/11/21 06:14:00;;;;;;;42.47;19.80;;;9.70;99.90;;;7.46;100.00;100081.69;4999617;28;20058;-91
2021/11/21 06:16:28;;;;;;;46.47;20.75;;;9.70;99.90;;;7.44;100.00;100079.19;5007618;28;20049;-92
2021/11/21 06:18:56;;;;;;;42.00;20.35;;;9.70;99.90;;;7.55;100.00;100074.41;5007465;28;20038;-92
2021/11/21 06:21:24;;;;;;;42.30;19.90;;;9.70;99.90;;;7.55;100.00;100068.97;5007664;28;20054;-91
2021/11/21 06:23:51;;;;;;;42.58;20.50;;;9.70;99.90;;;7.62;100.00;100070.81;5023741;28;20050;-92
2021/11/21 06:26:19;;;;;;;43.28;19.83;;;9.70;99.90;;;7.62;100.00;100067.25;5006909;28;20453;-91
2021/11/21 06:28:47;;;;;;;46.70;20.38;;;9.70;99.90;;;7.68;100.00;100071.13;5023465;28;20410;-92
2021/11/21 06:31:14;;;;;;;44.70;19.35;;;9.70;99.90;;;7.61;100.00;100070.97;5007929;28;20042;-93
2021/11/21 06:33:42;;;;;;;45.78;19.90;;;9.70;99.90;;;7.60;100.00;100069.31;5022306;28;20053;-93
2021/11/21 06:36:11;;;;;;;45.90;20.23;;;9.70;99.90;;;7.64;100.00;100076.88;5008441;28;20048;-91
2021/11/21 06:38:38;;;;;;;40.78;18.85;;;9.70;99.90;;;7.61;100.00;100069.09;5010770;28;20057;-92
2021/11/21 06:41:06;;;;;;;48.00;19.42;;;9.70;99.90;;;7.61;100.00;100068.25;5010184;28;20061;-92
2021/11/21 06:43:33;;;;;;;46.00;19.73;;;9.70;99.90;;;7.59;100.00;100073.00;5008364;28;20054;-90
2021/11/21 06:46:01;;;;;;;47.63;19.50;;;9.70;99.90;;;7.56;100.00;100059.84;5008758;28;20605;-92
2021/11/21 06:48:29;;;;;;;45.33;20.10;;;9.70;99.90;;;7.62;100.00;100065.38;5023989;28;20054;-90
2021/11/21 06:50:57;;;;;;;46.47;19.58;;;9.70;99.90;;;7.58;100.00;100066.75;5027790;28;20037;-91
2021/11/21 06:53:25;;;;;;;45.15;20.10;;;9.70;99.90;;;7.57;100.00;100072.34;5027624;28;20124;-91
2021/11/21 06:55:52;;;;;;;44.15;19.25;;;9.70;99.90;;;7.48;100.00;100062.56;5010535;28;20092;-91
2021/11/21 06:58:20;;;;;;;50.08;20.83;;;9.70;99.90;;;7.50;100.00;100064.09;5010697;28;20081;-91
2021/11/21 07:00:47;;;;;;;49.50;20.00;;;9.70;99.90;;;7.52;100.00;100064.75;5012068;28;20034;-92
2021/11/21 07:03:15;;;;;;;44.60;19.08;;;9.70;99.90;;;7.58;100.00;100074.06;5011527;28;20050;-91
2021/11/21 07:05:42;;;;;;;47.78;19.60;;;9.70;99.90;;;7.61;100.00;100079.09;5009824;28;20050;-85
2021/11/21 07:08:09;;;;;;;39.45;17.60;;;9.70;99.90;;;7.61;100.00;100074.50;5011597;28;20088;-85
2021/11/21 07:10:38;;;;;;;37.97;16.42;;;9.70;99.90;;;7.63;100.00;100077.06;5011267;28;20100;-86
2021/11/21 07:13:06;;;;;;;32.85;15.55;;;9.70;99.90;;;7.60;100.00;100086.38;5011290;28;20100;-85
2021/11/21 07:15:33;;;;;;;30.67;14.75;;;9.70;99.90;;;7.62;100.00;100080.81;5010760;28;20470;-84
2021/11/21 07:18:00;;;;;;;31.75;13.82;;;9.70;99.90;;;7.66;100.00;100087.53;5011246;28;20037;-85
2021/11/21 07:20:29;;;;;;;26.33;12.82;;;9.60;99.90;;;7.62;100.00;100081.63;5010905;28;20050;-87
2021/11/21 07:22:56;;;;;;;23.08;11.95;;;9.70;99.90;;;7.63;100.00;100096.00;5011283;28;20052;-88
2021/11/21 07:25:25;;;;;;;22.20;10.95;;;9.70;99.90;;;7.64;100.00;100090.44;5010858;28;20041;-93
2021/11/21 07:27:55;;;;;;;25.65;10.55;;;9.70;99.90;;;7.64;100.00;100095.00;5009212;28;20426;-89
2021/11/21 07:30:24;;;;;;;24.20;9.27;;;9.70;99.90;;;7.64;100.00;100092.28;5011386;28;20045;-87
2021/11/21 07:32:53;;;;;;;17.95;9.38;;;9.70;99.90;;;7.63;100.00;100096.00;5010817;28;20054;-86
2021/11/21 07:35:24;;;;;;;19.50;9.05;;;9.70;99.90;;;7.62;100.00;100097.03;5022004;28;20053;-89
2021/11/21 07:37:52;;;;;;;16.80;8.45;;;9.70;99.90;;;7.64;100.00;100093.13;5033086;28;20068;-91
2021/11/21 07:40:24;;;;;;;19.83;8.90;;;9.70;99.90;;;7.62;100.00;100092.47;5039216;28;20855;-95
2021/11/21 07:43:01;;;;;;;16.88;8.43;;;9.70;99.90;;;7.63;100.00;100093.31;5033163;28;20065;-94
2021/11/21 08:15:10;;;;;;;22.20;10.63;;;9.80;99.90;;;7.77;100.00;100103.41;5004918;28;20112;-87
2021/11/21 08:17:37;;;;;;;21.63;11.57;;;9.80;99.90;;;7.83;100.00;100108.13;5007498;28;20511;-86
2021/11/21 08:20:06;;;;;;;19.38;10.80;;;9.80;99.90;;;7.85;100.00;100113.38;5009684;28;20045;-91
2021/11/21 08:22:33;;;;;;;25.00;12.43;;;9.80;99.90;;;7.89;100.00;100117.41;5007841;28;20096;-89
2021/11/21 08:25:01;;;;;;;26.42;12.40;;;9.90;99.90;;;7.88;100.00;100113.03;5008167;28;20054;-90
2021/11/21 08:27:28;;;;;;;27.27;12.98;;;9.90;99.90;;;7.89;100.00;100108.44;5007712;28;20817;-86
2021/11/21 08:29:56;;;;;;;25.23;12.50;;;9.90;99.90;;;7.87;100.00;100116.72;5010176;28;20053;-86
2021/11/21 08:32:24;;;;;;;26.75;12.60;;;9.90;99.90;;;7.94;100.00;100117.72;5007796;28;20042;-86
2021/11/21 08:34:52;;;;;;;27.70;14.13;;;9.90;99.90;;;7.94;100.00;100112.31;5007703;28;20046;-87
2021/11/21 08:37:19;;;;;;;26.38;13.70;;;9.90;99.90;;;7.98;100.00;100120.94;5014428;28;20537;-86
2021/11/21 08:39:46;;;;;;;26.77;14.18;;;9.90;99.90;;;7.98;100.00;100120.94;5028625;28;20199;-87
2021/11/21 08:42:14;;;;;;;32.10;15.05;;;10.00;99.90;;;7.99;100.00;100114.47;5027851;28;20049;-86
2021/11/21 08:45:09;;;;;;;30.20;14.45;;;10.00;99.90;;;7.99;100.00;100103.63;5027295;28;20049;-88
2021/11/21 08:47:40;;;;;;;31.67;15.05;;;10.00;99.90;;;8.07;100.00;100111.69;5027155;28;20780;-87
2021/11/21 08:50:10;;;;;;;30.60;15.10;;;10.00;99.90;;;8.15;100.00;100111.66;5026262;28;20053;-88
2021/11/21 08:52:38;;;;;;;37.38;15.63;;;10.10;99.90;;;8.22;100.00;100101.81;5025027;28;20045;-87
2021/11/21 08:55:07;;;;;;;35.60;15.50;;;10.10;99.90;;;8.23;100.00;100108.91;5026402;28;20073;-87
2021/11/21 08:57:35;;;;;;;28.98;15.13;;;10.10;99.90;;;8.29;100.00;100120.91;4999963;28;20205;-89
2021/11/21 09:00:06;;;;;;;32.47;15.13;;;10.10;99.90;;;8.27;100.00;100116.69;4988369;28;20042;-89
2021/11/21 09:02:33;;;;;;;;;;;10.20;99.90;;;8.34;100.00;100117.63;4986718;28;20050;-88
2021/11/21 09:05:06;;;;;;;32.20;14.95;;;10.20;99.90;;;8.34;100.00;100109.50;4987814;28;20012;-88
2021/11/21 09:07:35;;;;;;;33.00;16.83;;;10.20;99.90;;;8.41;100.00;100121.31;4988651;28;20060;-87
2021/11/21 09:10:07;;;;;;;27.92;15.05;;;10.30;99.90;;;8.48;100.00;100119.63;4987737;28;20042;-88
2021/11/21 09:12:43;;;;;;;30.95;15.30;;;10.30;99.90;;;8.51;100.00;100119.25;4988721;28;20495;-87
2021/11/21 09:15:16;;;;;;;28.63;14.82;;;10.30;99.90;;;8.49;100.00;100121.31;4988878;28;20045;-87
2021/11/21 09:18:24;;;;;;;;;;;;;;;;;;;;;
2021/11/21 09:20:56;;;;;;;30.10;15.10;;;10.40;99.90;;;8.57;100.00;100118.53;4977497;28;20356;-91
2021/11/21 09:23:25;;;;;;;30.05;15.77;;;10.50;99.90;;;8.60;100.00;100129.03;4983714;28;20150;-88
2021/11/21 09:25:57;;;;;;;32.53;16.83;;;10.50;99.90;;;8.59;100.00;100127.31;4983353;28;20062;-90
2021/11/21 09:28:27;;;;;;;34.13;17.33;;;10.50;99.90;;;8.67;100.00;100122.88;4986204;28;20116;-88
2021/11/21 09:30:57;;;;;;;33.60;16.70;;;10.50;99.90;;;8.74;100.00;100123.84;4984819;28;20058;-90
2021/11/21 09:33:26;;;;;;;37.55;18.73;;;10.50;99.90;;;8.78;100.00;100125.16;4985985;28;20670;-90
2021/11/21 09:36:10;;;;;;;47.00;20.13;;;10.50;99.90;;;8.73;100.00;100120.25;4986783;28;20110;-90
2021/11/21 09:38:45;;;;;;;;;;;10.60;99.90;;;8.72;100.00;100123.16;5007936;28;20150;-91
2021/11/21 09:41:12;;;;;;;46.13;20.00;;;10.50;99.90;;;8.72;100.00;100125.84;5043551;28;19975;-90
2021/11/21 09:43:43;;;;;;;46.25;19.83;;;10.60;99.90;;;8.67;100.00;100122.88;5026626;28;20123;-89
2021/11/21 09:46:11;;;;;;;46.25;20.45;;;10.60;99.90;;;8.71;100.00;100127.72;5027949;28;20075;-89
2021/11/21 09:48:39;;;;;;;36.22;18.40;;;10.60;99.90;;;8.73;100.00;100127.56;5028008;28;20041;-90
2021/11/21 09:51:08;;;;;;;41.88;20.13;;;10.70;99.90;;;8.81;100.00;100135.63;5028026;28;20037;-90
2021/11/21 09:53:36;;;;;;;43.17;19.73;;;10.70;99.90;;;8.77;100.00;100135.13;5015099;28;20073;-92
2021/11/21 09:56:04;;;;;;;50.70;21.30;;;10.70;99.90;;;8.80;100.00;100128.53;4999974;28;20045;-90
2021/11/21 09:59:06;;;;;;;44.55;20.15;;;10.70;99.90;;;8.92;100.00;100135.19;5001732;28;20517;-90
2021/11/21 10:15:07;;;;;;;39.30;19.17;;;10.80;99.90;;;8.99;100.00;100135.31;4889344;29;20060;-89
2021/11/21 10:17:50;;;;;;;;;;;10.90;99.90;;;8.96;100.00;100139.22;4873972;29;20049;-90
2021/11/21 10:20:34;;;;;;;42.58;20.10;;;10.80;99.90;;;9.04;100.00;100130.16;4888889;29;20541;-89
2021/11/21 10:23:05;;;;;;;43.15;18.90;;;10.80;99.90;;;9.01;100.00;100133.25;4873201;29;20700;-90
2021/11/21 10:25:51;;;;;;;38.97;18.83;;;10.90;99.90;;;9.00;100.00;100135.13;4876469;29;20068;-90
2021/11/21 10:28:30;;;;;;;44.75;19.67;;;10.80;99.90;;;9.06;100.00;100132.69;4876861;29;20067;-90
2021/11/21 10:39:49;;;;;;;33.40;16.00;;;10.80;99.90;;;8.97;100.00;100130.06;4800750;29;20224;-90
2021/11/21 10:42:24;;;;;;;33.85;15.25;;;10.80;99.90;;;9.03;100.00;100125.78;4815120;29;20062;-90
2021/11/21 10:44:55;;;;;;;33.35;14.75;;;10.80;99.90;;;8.97;100.00;100119.19;4836837;29;20139;-90
2021/11/21 10:47:22;;;;;;;29.70;14.02;;;10.80;99.90;;;8.99;100.00;100110.88;4837036;29;20140;-89
2021/11/21 10:49:55;;;;;;;27.23;13.90;;;10.80;99.90;;;9.04;100.00;100123.88;4869288;29;20060;-90
2021/11/21 10:52:30;;;;;;;31.80;14.38;;;10.90;99.90;;;8.97;100.00;100121.91;4910696;29;20601;-90
2021/11/21 10:54:59;;;;;;;32.90;15.40;;;10.80;99.90;;;9.05;100.00;100125.59;4891754;29;21067;-89
2021/11/21 10:57:34;;;;;;;32.97;14.88;;;10.90;99.90;;;9.08;100.00;100114.34;4876015;29;20072;-90
2021/11/21 11:00:26;;;;;;;26.35;12.48;;;10.90;99.90;;;9.15;100.00;100120.72;4899547;29;21298;-90
2021/11/21 11:02:54;;;;;;;25.35;11.95;;;10.90;99.90;;;9.16;100.00;100123.25;4932025;29;20162;-91
2021/11/21 11:15:07;;;;;;;22.52;9.73;;;10.80;99.90;;;9.17;100.00;100124.94;5031087;28;20768;-91
2021/11/21 11:17:38;;;;;;;23.33;11.23;;;10.90;99.90;;;9.18;100.00;100114.94;5027805;28;20457;-91